sensor_id;sensor_type;location;lat;lon;timestamp;P1;durP1;ratioP1;P2;durP2;ratioP2
16282;SDS011;8249;48.708;9.030;2022-12-18T00:02:07;4.43;;;4.10;;
16282;SDS011;8249;48.708;9.030;2022-12-18T00:04:37;3.70;;;3.60;;
16282;SDS011;8249;48.708;9.030;2022-12-18T00:07:04;4.33;;;4.13;;
16282;SDS011;8249;48.708;9.030;2022-12-18T00:09:31;5.77;;;4.93;;
16282;SDS011;8249;48.708;9.030;2022-12-18T00:11:58;4.07;;;3.97;;
16282;SDS011;8249;48.708;9.030;2022-12-18T00:14:26;3.70;;;3.40;;
16282;SDS011;8249;48.708;9.030;2022-12-18T00:16:54;4.33;;;3.97;;
16282;SDS011;8249;48.708;9.030;2022-12-18T00:19:23;3.63;;;3.53;;
16282;SDS011;8249;48.708;9.030;2022-12-18T00:21:50;2.87;;;2.80;;
16282;SDS011;8249;48.708;9.030;2022-12-18T00:24:17;4.73;;;4.43;;
16282;SDS011;8249;48.708;9.030;2022-12-18T00:26:44;4.27;;;3.93;;
16282;SDS011;8249;48.708;9.030;2022-12-18T00:29:11;3.87;;;3.60;;
16282;SDS011;8249;48.708;9.030;2022-12-18T00:31:40;4.00;;;3.80;;
16282;SDS011;8249;48.708;9.030;2022-12-18T00:34:10;2.80;;;2.80;;
16282;SDS011;8249;48.708;9.030;2022-12-18T00:36:39;5.10;;;4.80;;
16282;SDS011;8249;48.708;9.030;2022-12-18T00:39:06;6.70;;;4.37;;
16282;SDS011;8249;48.708;9.030;2022-12-18T00:41:33;5.53;;;5.10;;
16282;SDS011;8249;48.708;9.030;2022-12-18T00:44:18;8.03;;;5.70;;
16282;SDS011;8249;48.708;9.030;2022-12-18T00:46:46;13.53;;;6.03;;
16282;SDS011;8249;48.708;9.030;2022-12-18T00:49:16;4.77;;;4.67;;
16282;SDS011;8249;48.708;9.030;2022-12-18T00:51:48;4.33;;;4.13;;
16282;SDS011;8249;48.708;9.030;2022-12-18T00:54:15;3.90;;;3.80;;
16282;SDS011;8249;48.708;9.030;2022-12-18T00:56:43;4.83;;;4.33;;
16282;SDS011;8249;48.708;9.030;2022-12-18T00:59:10;3.73;;;3.50;;
16282;SDS011;8249;48.708;9.030;2022-12-18T01:01:37;5.77;;;4.93;;
16282;SDS011;8249;48.708;9.030;2022-12-18T01:04:05;4.73;;;4.53;;
16282;SDS011;8249;48.708;9.030;2022-12-18T01:06:33;3.87;;;3.77;;
16282;SDS011;8249;48.708;9.030;2022-12-18T01:09:00;4.00;;;3.87;;
16282;SDS011;8249;48.708;9.030;2022-12-18T01:11:28;3.33;;;3.23;;
16282;SDS011;8249;48.708;9.030;2022-12-18T01:13:55;4.03;;;3.93;;
16282;SDS011;8249;48.708;9.030;2022-12-18T01:16:25;3.80;;;3.70;;
16282;SDS011;8249;48.708;9.030;2022-12-18T01:18:52;3.37;;;3.17;;
16282;SDS011;8249;48.708;9.030;2022-12-18T01:21:20;3.57;;;3.47;;
16282;SDS011;8249;48.708;9.030;2022-12-18T01:23:51;3.00;;;2.90;;
16282;SDS011;8249;48.708;9.030;2022-12-18T01:26:19;3.83;;;3.73;;
16282;SDS011;8249;48.708;9.030;2022-12-18T01:28:47;4.60;;;4.40;;
16282;SDS011;8249;48.708;9.030;2022-12-18T01:31:15;4.20;;;3.97;;
16282;SDS011;8249;48.708;9.030;2022-12-18T01:33:45;4.40;;;4.13;;
16282;SDS011;8249;48.708;9.030;2022-12-18T01:36:16;4.90;;;4.57;;
16282;SDS011;8249;48.708;9.030;2022-12-18T01:38:44;2.87;;;2.80;;
16282;SDS011;8249;48.708;9.030;2022-12-18T01:41:13;4.23;;;3.60;;
16282;SDS011;8249;48.708;9.030;2022-12-18T01:43:47;2.70;;;2.70;;
16282;SDS011;8249;48.708;9.030;2022-12-18T01:46:16;3.47;;;3.30;;
16282;SDS011;8249;48.708;9.030;2022-12-18T01:48:44;2.80;;;2.70;;
16282;SDS011;8249;48.708;9.030;2022-12-18T01:51:14;4.17;;;3.67;;
16282;SDS011;8249;48.708;9.030;2022-12-18T01:53:42;3.10;;;3.00;;
16282;SDS011;8249;48.708;9.030;2022-12-18T01:56:13;4.07;;;3.63;;
16282;SDS011;8249;48.708;9.030;2022-12-18T01:58:44;5.53;;;3.97;;
16282;SDS011;8249;48.708;9.030;2022-12-18T02:01:16;3.53;;;3.37;;
16282;SDS011;8249;48.708;9.030;2022-12-18T02:03:44;4.47;;;4.27;;
16282;SDS011;8249;48.708;9.030;2022-12-18T02:06:13;2.70;;;2.60;;
16282;SDS011;8249;48.708;9.030;2022-12-18T02:08:48;4.87;;;4.47;;
16282;SDS011;8249;48.708;9.030;2022-12-18T02:11:32;3.93;;;3.73;;
16282;SDS011;8249;48.708;9.030;2022-12-18T02:14:11;2.23;;;2.23;;
16282;SDS011;8249;48.708;9.030;2022-12-18T02:16:48;7.00;;;4.60;;
16282;SDS011;8249;48.708;9.030;2022-12-18T02:19:26;2.70;;;2.70;;
16282;SDS011;8249;48.708;9.030;2022-12-18T02:22:06;3.20;;;3.17;;
16282;SDS011;8249;48.708;9.030;2022-12-18T02:24:45;4.57;;;4.27;;
16282;SDS011;8249;48.708;9.030;2022-12-18T02:27:26;3.40;;;3.33;;
16282;SDS011;8249;48.708;9.030;2022-12-18T02:29:56;5.50;;;5.20;;
16282;SDS011;8249;48.708;9.030;2022-12-18T02:32:31;3.50;;;3.30;;
16282;SDS011;8249;48.708;9.030;2022-12-18T02:35:02;5.03;;;4.63;;
16282;SDS011;8249;48.708;9.030;2022-12-18T02:37:32;5.83;;;5.43;;
16282;SDS011;8249;48.708;9.030;2022-12-18T02:40:04;5.97;;;4.83;;
16282;SDS011;8249;48.708;9.030;2022-12-18T02:42:36;4.33;;;4.13;;
16282;SDS011;8249;48.708;9.030;2022-12-18T02:45:05;3.83;;;3.63;;
16282;SDS011;8249;48.708;9.030;2022-12-18T02:47:36;3.57;;;3.47;;
16282;SDS011;8249;48.708;9.030;2022-12-18T02:50:07;3.10;;;3.00;;
16282;SDS011;8249;48.708;9.030;2022-12-18T02:52:45;3.93;;;3.73;;
16282;SDS011;8249;48.708;9.030;2022-12-18T02:55:21;5.67;;;4.43;;
16282;SDS011;8249;48.708;9.030;2022-12-18T02:58:03;4.40;;;4.30;;
16282;SDS011;8249;48.708;9.030;2022-12-18T03:00:37;5.17;;;4.83;;
16282;SDS011;8249;48.708;9.030;2022-12-18T03:03:09;6.50;;;3.93;;
16282;SDS011;8249;48.708;9.030;2022-12-18T03:05:41;3.73;;;3.53;;
16282;SDS011;8249;48.708;9.030;2022-12-18T03:08:18;3.60;;;3.50;;
16282;SDS011;8249;48.708;9.030;2022-12-18T03:10:49;3.60;;;3.50;;
16282;SDS011;8249;48.708;9.030;2022-12-18T03:13:22;3.23;;;3.13;;
16282;SDS011;8249;48.708;9.030;2022-12-18T03:15:53;3.07;;;2.97;;
16282;SDS011;8249;48.708;9.030;2022-12-18T03:18:23;3.23;;;3.03;;
16282;SDS011;8249;48.708;9.030;2022-12-18T03:20:54;3.97;;;3.77;;
16282;SDS011;8249;48.708;9.030;2022-12-18T03:23:25;3.27;;;3.17;;
16282;SDS011;8249;48.708;9.030;2022-12-18T03:25:59;5.57;;;2.77;;
16282;SDS011;8249;48.708;9.030;2022-12-18T03:28:31;2.63;;;2.60;;
16282;SDS011;8249;48.708;9.030;2022-12-18T03:31:03;7.77;;;4.00;;
16282;SDS011;8249;48.708;9.030;2022-12-18T03:33:34;2.53;;;2.53;;
16282;SDS011;8249;48.708;9.030;2022-12-18T03:36:07;3.00;;;3.00;;
16282;SDS011;8249;48.708;9.030;2022-12-18T03:38:34;3.40;;;2.97;;
16282;SDS011;8249;48.708;9.030;2022-12-18T03:41:04;8.43;;;4.37;;
16282;SDS011;8249;48.708;9.030;2022-12-18T03:43:51;3.37;;;3.27;;
16282;SDS011;8249;48.708;9.030;2022-12-18T03:46:25;5.27;;;4.87;;
16282;SDS011;8249;48.708;9.030;2022-12-18T03:48:57;4.00;;;3.30;;
16282;SDS011;8249;48.708;9.030;2022-12-18T03:51:31;5.57;;;5.27;;
16282;SDS011;8249;48.708;9.030;2022-12-18T03:54:04;3.73;;;3.53;;
16282;SDS011;8249;48.708;9.030;2022-12-18T03:56:40;8.83;;;4.50;;
16282;SDS011;8249;48.708;9.030;2022-12-18T03:59:13;4.20;;;3.77;;
16282;SDS011;8249;48.708;9.030;2022-12-18T04:01:46;3.73;;;3.63;;
16282;SDS011;8249;48.708;9.030;2022-12-18T04:04:16;3.33;;;3.23;;
16282;SDS011;8249;48.708;9.030;2022-12-18T04:06:45;4.33;;;4.03;;
16282;SDS011;8249;48.708;9.030;2022-12-18T04:09:15;5.13;;;4.83;;
16282;SDS011;8249;48.708;9.030;2022-12-18T04:11:45;5.13;;;4.37;;
16282;SDS011;8249;48.708;9.030;2022-12-18T04:14:15;5.50;;;5.03;;
16282;SDS011;8249;48.708;9.030;2022-12-18T04:16:43;7.50;;;4.93;;
16282;SDS011;8249;48.708;9.030;2022-12-18T04:19:13;3.93;;;3.50;;
16282;SDS011;8249;48.708;9.030;2022-12-18T04:21:42;9.10;;;5.60;;
16282;SDS011;8249;48.708;9.030;2022-12-18T04:24:11;4.60;;;4.40;;
16282;SDS011;8249;48.708;9.030;2022-12-18T04:26:44;3.93;;;3.73;;
16282;SDS011;8249;48.708;9.030;2022-12-18T04:29:16;3.70;;;3.60;;
16282;SDS011;8249;48.708;9.030;2022-12-18T04:31:43;4.70;;;4.40;;
16282;SDS011;8249;48.708;9.030;2022-12-18T04:34:10;5.07;;;4.70;;
16282;SDS011;8249;48.708;9.030;2022-12-18T04:36:43;3.80;;;3.67;;
16282;SDS011;8249;48.708;9.030;2022-12-18T04:39:11;4.33;;;4.03;;
16282;SDS011;8249;48.708;9.030;2022-12-18T04:41:40;4.23;;;4.13;;
16282;SDS011;8249;48.708;9.030;2022-12-18T04:44:08;3.67;;;3.47;;
16282;SDS011;8249;48.708;9.030;2022-12-18T04:46:36;5.00;;;4.80;;
16282;SDS011;8249;48.708;9.030;2022-12-18T04:49:03;3.83;;;3.63;;
16282;SDS011;8249;48.708;9.030;2022-12-18T04:51:30;5.00;;;3.67;;
16282;SDS011;8249;48.708;9.030;2022-12-18T04:53:57;3.83;;;3.63;;
16282;SDS011;8249;48.708;9.030;2022-12-18T04:56:24;5.83;;;5.53;;
16282;SDS011;8249;48.708;9.030;2022-12-18T04:58:51;4.20;;;4.00;;
16282;SDS011;8249;48.708;9.030;2022-12-18T05:01:18;3.53;;;3.33;;
16282;SDS011;8249;48.708;9.030;2022-12-18T05:03:46;3.50;;;3.40;;
16282;SDS011;8249;48.708;9.030;2022-12-18T05:06:13;4.33;;;4.03;;
16282;SDS011;8249;48.708;9.030;2022-12-18T05:08:40;4.13;;;3.93;;
16282;SDS011;8249;48.708;9.030;2022-12-18T05:11:08;3.90;;;3.70;;
16282;SDS011;8249;48.708;9.030;2022-12-18T05:13:36;6.30;;;5.80;;
16282;SDS011;8249;48.708;9.030;2022-12-18T05:16:04;3.10;;;3.00;;
16282;SDS011;8249;48.708;9.030;2022-12-18T05:18:32;4.07;;;3.83;;
16282;SDS011;8249;48.708;9.030;2022-12-18T05:21:00;6.97;;;4.20;;
16282;SDS011;8249;48.708;9.030;2022-12-18T05:23:28;3.97;;;3.87;;
16282;SDS011;8249;48.708;9.030;2022-12-18T05:25:55;2.80;;;2.80;;
16282;SDS011;8249;48.708;9.030;2022-12-18T05:28:24;3.80;;;3.70;;
16282;SDS011;8249;48.708;9.030;2022-12-18T05:30:53;4.13;;;3.93;;
16282;SDS011;8249;48.708;9.030;2022-12-18T05:33:22;4.33;;;4.13;;
16282;SDS011;8249;48.708;9.030;2022-12-18T05:35:50;4.37;;;4.07;;
16282;SDS011;8249;48.708;9.030;2022-12-18T05:38:19;4.40;;;4.07;;
16282;SDS011;8249;48.708;9.030;2022-12-18T05:40:47;3.07;;;2.97;;
16282;SDS011;8249;48.708;9.030;2022-12-18T05:43:15;3.67;;;3.47;;
16282;SDS011;8249;48.708;9.030;2022-12-18T05:45:42;3.97;;;3.87;;
16282;SDS011;8249;48.708;9.030;2022-12-18T05:48:09;3.80;;;3.63;;
16282;SDS011;8249;48.708;9.030;2022-12-18T05:50:40;4.33;;;4.13;;
16282;SDS011;8249;48.708;9.030;2022-12-18T05:53:09;2.93;;;2.83;;
16282;SDS011;8249;48.708;9.030;2022-12-18T05:55:38;3.47;;;3.37;;
16282;SDS011;8249;48.708;9.030;2022-12-18T05:58:06;3.57;;;3.37;;
16282;SDS011;8249;48.708;9.030;2022-12-18T06:00:34;3.27;;;3.23;;
16282;SDS011;8249;48.708;9.030;2022-12-18T06:03:04;3.57;;;3.47;;
16282;SDS011;8249;48.708;9.030;2022-12-18T06:05:34;3.97;;;3.87;;
16282;SDS011;8249;48.708;9.030;2022-12-18T06:08:01;3.80;;;3.60;;
16282;SDS011;8249;48.708;9.030;2022-12-18T06:10:28;9.30;;;3.77;;
16282;SDS011;8249;48.708;9.030;2022-12-18T06:12:56;4.43;;;4.13;;
16282;SDS011;8249;48.708;9.030;2022-12-18T06:15:23;3.50;;;3.40;;
16282;SDS011;8249;48.708;9.030;2022-12-18T06:17:50;3.40;;;3.30;;
16282;SDS011;8249;48.708;9.030;2022-12-18T06:20:17;4.67;;;4.27;;
16282;SDS011;8249;48.708;9.030;2022-12-18T06:22:45;4.10;;;3.90;;
16282;SDS011;8249;48.708;9.030;2022-12-18T06:25:12;3.20;;;3.10;;
16282;SDS011;8249;48.708;9.030;2022-12-18T06:27:39;3.50;;;3.23;;
16282;SDS011;8249;48.708;9.030;2022-12-18T06:30:08;3.67;;;3.57;;
16282;SDS011;8249;48.708;9.030;2022-12-18T06:32:36;2.90;;;2.80;;
16282;SDS011;8249;48.708;9.030;2022-12-18T06:35:03;5.07;;;4.67;;
16282;SDS011;8249;48.708;9.030;2022-12-18T06:37:31;4.07;;;3.77;;
16282;SDS011;8249;48.708;9.030;2022-12-18T06:39:58;3.83;;;3.63;;
16282;SDS011;8249;48.708;9.030;2022-12-18T06:42:26;4.33;;;3.97;;
16282;SDS011;8249;48.708;9.030;2022-12-18T06:44:53;3.43;;;3.30;;
16282;SDS011;8249;48.708;9.030;2022-12-18T06:47:21;3.40;;;3.30;;
16282;SDS011;8249;48.708;9.030;2022-12-18T06:49:48;4.30;;;3.90;;
16282;SDS011;8249;48.708;9.030;2022-12-18T06:52:15;2.93;;;2.93;;
16282;SDS011;8249;48.708;9.030;2022-12-18T06:54:42;8.13;;;4.33;;
16282;SDS011;8249;48.708;9.030;2022-12-18T06:57:09;5.03;;;4.73;;
16282;SDS011;8249;48.708;9.030;2022-12-18T06:59:36;3.43;;;3.33;;
16282;SDS011;8249;48.708;9.030;2022-12-18T07:02:03;3.83;;;3.73;;
16282;SDS011;8249;48.708;9.030;2022-12-18T07:04:32;3.60;;;3.50;;
16282;SDS011;8249;48.708;9.030;2022-12-18T07:06:59;5.37;;;4.97;;
16282;SDS011;8249;48.708;9.030;2022-12-18T07:09:26;4.13;;;3.90;;
16282;SDS011;8249;48.708;9.030;2022-12-18T07:11:53;4.80;;;4.37;;
16282;SDS011;8249;48.708;9.030;2022-12-18T07:14:20;4.53;;;4.23;;
16282;SDS011;8249;48.708;9.030;2022-12-18T07:16:48;3.33;;;3.23;;
16282;SDS011;8249;48.708;9.030;2022-12-18T07:19:15;2.93;;;2.93;;
16282;SDS011;8249;48.708;9.030;2022-12-18T07:21:43;3.90;;;3.80;;
16282;SDS011;8249;48.708;9.030;2022-12-18T07:24:10;3.33;;;3.23;;
16282;SDS011;8249;48.708;9.030;2022-12-18T07:26:38;4.90;;;4.37;;
16282;SDS011;8249;48.708;9.030;2022-12-18T07:29:05;2.87;;;2.87;;
16282;SDS011;8249;48.708;9.030;2022-12-18T07:31:32;11.20;;;4.90;;
16282;SDS011;8249;48.708;9.030;2022-12-18T07:33:59;3.60;;;3.17;;
16282;SDS011;8249;48.708;9.030;2022-12-18T07:36:26;3.77;;;3.63;;
16282;SDS011;8249;48.708;9.030;2022-12-18T07:38:54;2.60;;;2.60;;
16282;SDS011;8249;48.708;9.030;2022-12-18T07:41:21;3.23;;;3.13;;
16282;SDS011;8249;48.708;9.030;2022-12-18T07:43:48;4.67;;;4.43;;
16282;SDS011;8249;48.708;9.030;2022-12-18T07:46:15;3.50;;;3.40;;
16282;SDS011;8249;48.708;9.030;2022-12-18T07:48:43;3.50;;;3.30;;
16282;SDS011;8249;48.708;9.030;2022-12-18T07:51:10;4.07;;;3.77;;
16282;SDS011;8249;48.708;9.030;2022-12-18T07:53:37;2.77;;;2.77;;
16282;SDS011;8249;48.708;9.030;2022-12-18T07:56:07;3.30;;;3.20;;
16282;SDS011;8249;48.708;9.030;2022-12-18T07:58:35;5.63;;;4.33;;
16282;SDS011;8249;48.708;9.030;2022-12-18T08:01:03;4.40;;;4.13;;
16282;SDS011;8249;48.708;9.030;2022-12-18T08:03:31;4.90;;;4.70;;
16282;SDS011;8249;48.708;9.030;2022-12-18T08:05:58;2.90;;;2.90;;
16282;SDS011;8249;48.708;9.030;2022-12-18T08:08:26;5.63;;;5.20;;
16282;SDS011;8249;48.708;9.030;2022-12-18T08:10:53;4.30;;;4.00;;
16282;SDS011;8249;48.708;9.030;2022-12-18T08:13:22;3.07;;;3.07;;
16282;SDS011;8249;48.708;9.030;2022-12-18T08:15:55;4.70;;;4.47;;
16282;SDS011;8249;48.708;9.030;2022-12-18T08:18:23;7.37;;;6.87;;
16282;SDS011;8249;48.708;9.030;2022-12-18T08:20:50;4.20;;;3.90;;
16282;SDS011;8249;48.708;9.030;2022-12-18T08:23:17;5.50;;;5.13;;
16282;SDS011;8249;48.708;9.030;2022-12-18T08:25:44;4.63;;;4.43;;
16282;SDS011;8249;48.708;9.030;2022-12-18T08:28:12;6.20;;;5.67;;
16282;SDS011;8249;48.708;9.030;2022-12-18T08:30:43;10.67;;;4.20;;
16282;SDS011;8249;48.708;9.030;2022-12-18T08:33:10;3.40;;;3.23;;
16282;SDS011;8249;48.708;9.030;2022-12-18T08:35:37;4.13;;;3.90;;
16282;SDS011;8249;48.708;9.030;2022-12-18T08:38:04;4.90;;;4.60;;
16282;SDS011;8249;48.708;9.030;2022-12-18T08:40:31;3.73;;;3.53;;
16282;SDS011;8249;48.708;9.030;2022-12-18T08:42:58;6.20;;;5.17;;
16282;SDS011;8249;48.708;9.030;2022-12-18T08:45:44;5.70;;;5.13;;
16282;SDS011;8249;48.708;9.030;2022-12-18T08:48:11;7.27;;;3.77;;
16282;SDS011;8249;48.708;9.030;2022-12-18T08:50:38;5.90;;;4.77;;
16282;SDS011;8249;48.708;9.030;2022-12-18T08:53:05;5.23;;;4.73;;
16282;SDS011;8249;48.708;9.030;2022-12-18T08:55:32;9.00;;;6.30;;
16282;SDS011;8249;48.708;9.030;2022-12-18T08:57:59;4.03;;;3.63;;
16282;SDS011;8249;48.708;9.030;2022-12-18T09:00:26;5.97;;;4.47;;
16282;SDS011;8249;48.708;9.030;2022-12-18T09:02:54;6.57;;;5.50;;
16282;SDS011;8249;48.708;9.030;2022-12-18T09:05:21;7.97;;;5.33;;
16282;SDS011;8249;48.708;9.030;2022-12-18T09:07:48;6.63;;;5.40;;
16282;SDS011;8249;48.708;9.030;2022-12-18T09:10:15;6.13;;;5.43;;
16282;SDS011;8249;48.708;9.030;2022-12-18T09:12:43;6.10;;;5.67;;
16282;SDS011;8249;48.708;9.030;2022-12-18T09:15:10;7.83;;;6.77;;
16282;SDS011;8249;48.708;9.030;2022-12-18T09:17:37;7.33;;;5.40;;
16282;SDS011;8249;48.708;9.030;2022-12-18T09:20:06;8.30;;;6.77;;
16282;SDS011;8249;48.708;9.030;2022-12-18T09:22:34;5.87;;;5.07;;
16282;SDS011;8249;48.708;9.030;2022-12-18T09:25:01;6.57;;;5.97;;
16282;SDS011;8249;48.708;9.030;2022-12-18T09:27:33;8.50;;;6.73;;
16282;SDS011;8249;48.708;9.030;2022-12-18T09:30:00;9.80;;;6.33;;
16282;SDS011;8249;48.708;9.030;2022-12-18T09:32:28;5.47;;;4.80;;
16282;SDS011;8249;48.708;9.030;2022-12-18T09:34:58;15.73;;;6.93;;
16282;SDS011;8249;48.708;9.030;2022-12-18T09:37:28;9.93;;;6.80;;
16282;SDS011;8249;48.708;9.030;2022-12-18T09:39:55;6.87;;;6.17;;
16282;SDS011;8249;48.708;9.030;2022-12-18T09:42:22;6.70;;;5.70;;
16282;SDS011;8249;48.708;9.030;2022-12-18T09:44:49;7.47;;;6.67;;
16282;SDS011;8249;48.708;9.030;2022-12-18T09:47:18;6.33;;;5.70;;
16282;SDS011;8249;48.708;9.030;2022-12-18T09:49:49;6.30;;;5.70;;
16282;SDS011;8249;48.708;9.030;2022-12-18T09:52:21;9.87;;;6.70;;
16282;SDS011;8249;48.708;9.030;2022-12-18T09:54:54;7.77;;;6.70;;
16282;SDS011;8249;48.708;9.030;2022-12-18T09:57:29;6.20;;;4.53;;
16282;SDS011;8249;48.708;9.030;2022-12-18T09:59:59;11.40;;;7.23;;
16282;SDS011;8249;48.708;9.030;2022-12-18T10:02:36;6.27;;;4.57;;
16282;SDS011;8249;48.708;9.030;2022-12-18T10:05:05;10.83;;;7.17;;
16282;SDS011;8249;48.708;9.030;2022-12-18T10:07:40;7.10;;;5.90;;
16282;SDS011;8249;48.708;9.030;2022-12-18T10:10:21;7.57;;;6.67;;
16282;SDS011;8249;48.708;9.030;2022-12-18T10:12:56;9.43;;;6.77;;
16282;SDS011;8249;48.708;9.030;2022-12-18T10:15:34;6.03;;;5.43;;
16282;SDS011;8249;48.708;9.030;2022-12-18T10:18:16;6.43;;;4.73;;
16282;SDS011;8249;48.708;9.030;2022-12-18T10:20:51;7.40;;;6.10;;
16282;SDS011;8249;48.708;9.030;2022-12-18T10:23:22;6.97;;;6.30;;
16282;SDS011;8249;48.708;9.030;2022-12-18T10:25:58;7.13;;;5.07;;
16282;SDS011;8249;48.708;9.030;2022-12-18T10:28:29;8.63;;;5.80;;
16282;SDS011;8249;48.708;9.030;2022-12-18T10:30:56;6.57;;;6.07;;
16282;SDS011;8249;48.708;9.030;2022-12-18T10:33:27;5.90;;;5.33;;
16282;SDS011;8249;48.708;9.030;2022-12-18T10:35:56;6.73;;;6.07;;
16282;SDS011;8249;48.708;9.030;2022-12-18T10:38:27;7.53;;;6.10;;
16282;SDS011;8249;48.708;9.030;2022-12-18T10:40:55;7.97;;;6.03;;
16282;SDS011;8249;48.708;9.030;2022-12-18T10:43:25;6.50;;;5.83;;
16282;SDS011;8249;48.708;9.030;2022-12-18T10:45:58;6.83;;;6.07;;
16282;SDS011;8249;48.708;9.030;2022-12-18T10:48:40;10.07;;;6.10;;
16282;SDS011;8249;48.708;9.030;2022-12-18T10:51:21;9.47;;;6.23;;
16282;SDS011;8249;48.708;9.030;2022-12-18T10:53:57;8.37;;;5.97;;
16282;SDS011;8249;48.708;9.030;2022-12-18T10:56:28;6.60;;;5.97;;
16282;SDS011;8249;48.708;9.030;2022-12-18T10:58:58;6.60;;;5.87;;
16282;SDS011;8249;48.708;9.030;2022-12-18T11:01:27;6.53;;;5.27;;
16282;SDS011;8249;48.708;9.030;2022-12-18T11:03:59;10.73;;;6.17;;
16282;SDS011;8249;48.708;9.030;2022-12-18T11:06:28;8.17;;;5.40;;
16282;SDS011;8249;48.708;9.030;2022-12-18T11:08:58;8.47;;;6.07;;
16282;SDS011;8249;48.708;9.030;2022-12-18T11:11:26;8.07;;;5.60;;
16282;SDS011;8249;48.708;9.030;2022-12-18T11:14:04;9.00;;;7.33;;
16282;SDS011;8249;48.708;9.030;2022-12-18T11:16:33;7.07;;;6.13;;
16282;SDS011;8249;48.708;9.030;2022-12-18T11:19:14;10.77;;;7.57;;
16282;SDS011;8249;48.708;9.030;2022-12-18T11:21:47;8.73;;;6.57;;
16282;SDS011;8249;48.708;9.030;2022-12-18T11:24:19;8.13;;;5.67;;
16282;SDS011;8249;48.708;9.030;2022-12-18T11:26:51;10.70;;;7.67;;
16282;SDS011;8249;48.708;9.030;2022-12-18T11:29:24;7.53;;;6.10;;
16282;SDS011;8249;48.708;9.030;2022-12-18T11:32:12;6.80;;;6.03;;
16282;SDS011;8249;48.708;9.030;2022-12-18T11:35:11;7.33;;;6.13;;
16282;SDS011;8249;48.708;9.030;2022-12-18T11:37:43;8.20;;;6.13;;
16282;SDS011;8249;48.708;9.030;2022-12-18T11:40:15;6.50;;;5.97;;
16282;SDS011;8249;48.708;9.030;2022-12-18T11:42:48;7.60;;;5.77;;
16282;SDS011;8249;48.708;9.030;2022-12-18T11:45:27;8.37;;;7.20;;
16282;SDS011;8249;48.708;9.030;2022-12-18T11:48:01;12.70;;;6.77;;
16282;SDS011;8249;48.708;9.030;2022-12-18T11:50:32;8.73;;;6.70;;
16282;SDS011;8249;48.708;9.030;2022-12-18T11:53:04;6.83;;;6.20;;
16282;SDS011;8249;48.708;9.030;2022-12-18T11:55:37;10.70;;;7.30;;
16282;SDS011;8249;48.708;9.030;2022-12-18T11:58:12;10.13;;;7.30;;
16282;SDS011;8249;48.708;9.030;2022-12-18T12:00:49;7.97;;;6.13;;
16282;SDS011;8249;48.708;9.030;2022-12-18T12:03:36;10.73;;;7.70;;
16282;SDS011;8249;48.708;9.030;2022-12-18T12:06:15;8.73;;;5.93;;
16282;SDS011;8249;48.708;9.030;2022-12-18T12:08:54;8.07;;;5.50;;
16282;SDS011;8249;48.708;9.030;2022-12-18T12:11:34;10.13;;;8.43;;
16282;SDS011;8249;48.708;9.030;2022-12-18T12:14:24;7.37;;;5.73;;
16282;SDS011;8249;48.708;9.030;2022-12-18T12:17:05;7.93;;;6.47;;
16282;SDS011;8249;48.708;9.030;2022-12-18T12:19:41;6.73;;;6.07;;
16282;SDS011;8249;48.708;9.030;2022-12-18T12:22:17;5.80;;;5.20;;
16282;SDS011;8249;48.708;9.030;2022-12-18T12:24:55;8.97;;;6.90;;
16282;SDS011;8249;48.708;9.030;2022-12-18T12:27:32;5.93;;;4.57;;
16282;SDS011;8249;48.708;9.030;2022-12-18T12:30:05;8.80;;;5.80;;
16282;SDS011;8249;48.708;9.030;2022-12-18T12:32:42;6.93;;;5.80;;
16282;SDS011;8249;48.708;9.030;2022-12-18T12:35:22;7.50;;;6.90;;
16282;SDS011;8249;48.708;9.030;2022-12-18T12:37:58;7.23;;;6.37;;
16282;SDS011;8249;48.708;9.030;2022-12-18T12:40:33;10.40;;;5.90;;
16282;SDS011;8249;48.708;9.030;2022-12-18T12:43:05;6.43;;;5.80;;
16282;SDS011;8249;48.708;9.030;2022-12-18T12:45:46;5.73;;;5.20;;
16282;SDS011;8249;48.708;9.030;2022-12-18T12:48:18;8.53;;;6.27;;
16282;SDS011;8249;48.708;9.030;2022-12-18T12:50:50;9.93;;;5.47;;
16282;SDS011;8249;48.708;9.030;2022-12-18T12:53:25;9.00;;;5.60;;
16282;SDS011;8249;48.708;9.030;2022-12-18T12:55:56;9.97;;;4.77;;
16282;SDS011;8249;48.708;9.030;2022-12-18T12:58:26;6.03;;;5.40;;
16282;SDS011;8249;48.708;9.030;2022-12-18T13:01:03;4.63;;;4.17;;
16282;SDS011;8249;48.708;9.030;2022-12-18T13:03:41;6.43;;;5.93;;
16282;SDS011;8249;48.708;9.030;2022-12-18T13:06:16;5.20;;;4.47;;
16282;SDS011;8249;48.708;9.030;2022-12-18T13:08:52;5.93;;;4.83;;
16282;SDS011;8249;48.708;9.030;2022-12-18T13:14:36;7.63;;;4.87;;
16282;SDS011;8249;48.708;9.030;2022-12-18T13:20:04;10.63;;;5.53;;
16282;SDS011;8249;48.708;9.030;2022-12-18T13:22:34;6.97;;;4.73;;
16282;SDS011;8249;48.708;9.030;2022-12-18T13:25:03;7.90;;;6.97;;
16282;SDS011;8249;48.708;9.030;2022-12-18T13:28:08;8.30;;;5.37;;
16282;SDS011;8249;48.708;9.030;2022-12-18T13:30:51;8.23;;;6.30;;
16282;SDS011;8249;48.708;9.030;2022-12-18T13:33:39;7.17;;;6.47;;
16282;SDS011;8249;48.708;9.030;2022-12-18T13:39:11;5.03;;;4.63;;
16282;SDS011;8249;48.708;9.030;2022-12-18T13:41:49;9.13;;;5.73;;
16282;SDS011;8249;48.708;9.030;2022-12-18T13:44:26;10.07;;;6.73;;
16282;SDS011;8249;48.708;9.030;2022-12-18T13:46:58;9.70;;;5.33;;
16282;SDS011;8249;48.708;9.030;2022-12-18T13:49:27;5.20;;;4.90;;
16282;SDS011;8249;48.708;9.030;2022-12-18T13:52:02;7.17;;;4.47;;
16282;SDS011;8249;48.708;9.030;2022-12-18T13:54:41;6.90;;;4.30;;
16282;SDS011;8249;48.708;9.030;2022-12-18T13:57:24;11.57;;;6.33;;
16282;SDS011;8249;48.708;9.030;2022-12-18T13:59:53;7.20;;;5.40;;
16282;SDS011;8249;48.708;9.030;2022-12-18T14:02:22;7.97;;;5.43;;
16282;SDS011;8249;48.708;9.030;2022-12-18T14:04:51;7.43;;;5.70;;
16282;SDS011;8249;48.708;9.030;2022-12-18T14:07:20;5.13;;;4.83;;
16282;SDS011;8249;48.708;9.030;2022-12-18T14:09:49;5.50;;;5.13;;
16282;SDS011;8249;48.708;9.030;2022-12-18T14:12:18;7.97;;;6.60;;
16282;SDS011;8249;48.708;9.030;2022-12-18T14:15:12;10.90;;;7.97;;
16282;SDS011;8249;48.708;9.030;2022-12-18T14:17:49;7.30;;;4.97;;
16282;SDS011;8249;48.708;9.030;2022-12-18T14:20:16;7.13;;;5.00;;
16282;SDS011;8249;48.708;9.030;2022-12-18T14:22:45;7.87;;;5.87;;
16282;SDS011;8249;48.708;9.030;2022-12-18T14:25:15;6.60;;;6.07;;
16282;SDS011;8249;48.708;9.030;2022-12-18T14:27:45;10.20;;;5.40;;
16282;SDS011;8249;48.708;9.030;2022-12-18T14:30:25;11.27;;;7.00;;
16282;SDS011;8249;48.708;9.030;2022-12-18T14:33:01;7.23;;;6.40;;
16282;SDS011;8249;48.708;9.030;2022-12-18T14:35:29;6.27;;;5.67;;
16282;SDS011;8249;48.708;9.030;2022-12-18T14:41:44;14.40;;;5.27;;
16282;SDS011;8249;48.708;9.030;2022-12-18T14:44:12;5.30;;;4.80;;
16282;SDS011;8249;48.708;9.030;2022-12-18T14:46:43;5.37;;;5.07;;
16282;SDS011;8249;48.708;9.030;2022-12-18T14:49:18;6.53;;;5.47;;
16282;SDS011;8249;48.708;9.030;2022-12-18T14:51:49;7.07;;;6.40;;
16282;SDS011;8249;48.708;9.030;2022-12-18T14:54:19;6.63;;;5.43;;
16282;SDS011;8249;48.708;9.030;2022-12-18T14:56:48;6.13;;;5.40;;
16282;SDS011;8249;48.708;9.030;2022-12-18T14:59:23;6.27;;;5.77;;
16282;SDS011;8249;48.708;9.030;2022-12-18T15:01:57;4.77;;;4.33;;
16282;SDS011;8249;48.708;9.030;2022-12-18T15:04:28;11.83;;;4.90;;
16282;SDS011;8249;48.708;9.030;2022-12-18T15:07:03;8.03;;;5.93;;
16282;SDS011;8249;48.708;9.030;2022-12-18T15:09:34;6.93;;;6.33;;
16282;SDS011;8249;48.708;9.030;2022-12-18T15:12:01;10.37;;;5.43;;
16282;SDS011;8249;48.708;9.030;2022-12-18T15:17:16;5.50;;;5.10;;
16282;SDS011;8249;48.708;9.030;2022-12-18T15:19:45;8.47;;;5.97;;
16282;SDS011;8249;48.708;9.030;2022-12-18T15:22:18;6.50;;;5.80;;
16282;SDS011;8249;48.708;9.030;2022-12-18T15:24:47;5.73;;;5.33;;
16282;SDS011;8249;48.708;9.030;2022-12-18T15:27:25;4.83;;;4.37;;
16282;SDS011;8249;48.708;9.030;2022-12-18T15:30:01;6.27;;;5.67;;
16282;SDS011;8249;48.708;9.030;2022-12-18T15:32:48;9.07;;;7.27;;
16282;SDS011;8249;48.708;9.030;2022-12-18T15:35:17;3.00;;;2.90;;
16282;SDS011;8249;48.708;9.030;2022-12-18T15:37:45;5.33;;;4.90;;
16282;SDS011;8249;48.708;9.030;2022-12-18T15:40:13;6.40;;;5.80;;